Terminal Aerodrome Forecast
Issued by NWS

Home | Current Version | Previous Version | Graphics & Text | Print | Product List | Glossary On
Versions: 1 2 3 4 5 6 7 8 9 10 11 12 13 14 15 16 17
793
FTUS43 KMPX 161737
TAFRWF
TAF
KRWF 161737Z 1618/1718 33012G18KT P6SM SCT025
      TEMPO 1618/1620 BKN030
     FM162100 32012KT P6SM SCT040
     FM170000 31004KT P6SM SKC
     FM171200 08006KT P6SM BKN250=

USA.gov is the U.S. government's official web portal to all federal, state and local government web resources and services.